Time;durP1;ratioP1;P1;durP2;ratioP2;P2;SDS_P1;SDS_P2;PMS_P1;PMS_P2;Temp;Humidity;BMP_temperature;BMP_pressure;BME280_temperature;BME280_humidity;BME280_pressure;Samples;Min_cycle;Max_cycle;Signal;HPM_P1;HPM_P2
2022/10/14 00:00:40;;;;;;;4.75;3.58;;;15.90;99.90;;;;;;7392341;19;20519;-79
2022/10/14 00:03:06;;;;;;;5.78;3.47;;;15.90;99.90;;;;;;7391379;19;20154;-79
2022/10/14 00:05:32;;;;;;;7.68;3.58;;;16.00;99.90;;;;;;7391843;19;20151;-79
2022/10/14 00:07:57;;;;;;;6.20;3.90;;;16.00;99.90;;;;;;7389857;19;20158;-79
2022/10/14 00:10:23;;;;;;;5.35;3.78;;;15.90;99.90;;;;;;7390144;19;20176;-79
2022/10/14 00:12:49;;;;;;;5.55;3.60;;;15.90;99.90;;;;;;7391719;19;20158;-80
2022/10/14 00:15:16;;;;;;;7.47;3.58;;;15.90;99.90;;;;;;7392787;19;20613;-80
2022/10/14 00:17:42;;;;;;;5.10;3.50;;;15.80;99.90;;;;;;7389059;19;20146;-79
2022/10/14 00:20:08;;;;;;;6.35;3.90;;;15.80;99.90;;;;;;7387806;19;20210;-79
2022/10/14 00:22:34;;;;;;;7.03;3.90;;;15.70;99.90;;;;;;7395900;19;20139;-79
2022/10/14 00:24:59;;;;;;;7.88;3.70;;;15.80;99.90;;;;;;7394709;19;20163;-77
2022/10/14 00:27:25;;;;;;;6.78;4.47;;;15.80;99.90;;;;;;7392896;19;20185;-79
2022/10/14 00:29:51;;;;;;;7.07;3.67;;;15.80;99.90;;;;;;7390563;19;20139;-80
2022/10/14 00:32:17;;;;;;;3.90;3.50;;;15.60;99.90;;;;;;7388380;19;20150;-80
2022/10/14 00:34:42;;;;;;;5.65;3.50;;;15.50;99.90;;;;;;7391680;19;20235;-78
2022/10/14 00:37:08;;;;;;;5.28;3.90;;;15.50;99.90;;;;;;7391401;19;20247;-80
2022/10/14 00:39:34;;;;;;;4.93;3.40;;;15.50;99.90;;;;;;7393182;19;20130;-79
2022/10/14 00:42:01;;;;;;;5.63;3.80;;;15.30;99.90;;;;;;7389697;19;20162;-80
2022/10/14 00:44:27;;;;;;;5.32;3.72;;;15.20;99.90;;;;;;7391312;19;20151;-80
2022/10/14 00:46:53;;;;;;;6.72;4.53;;;15.50;99.90;;;;;;7390262;19;20141;-80
2022/10/14 00:49:23;;;;;;;9.85;4.40;;;15.60;99.90;;;;;;7390527;19;20162;-80
2022/10/14 00:52:03;;;;;;;7.35;4.75;;;15.80;99.90;;;;;;7391324;19;20162;-79
2022/10/14 00:54:33;;;;;;;4.97;3.72;;;15.80;99.90;;;;;;7391808;19;20156;-80
2022/10/14 00:57:00;;;;;;;4.78;3.58;;;15.70;99.90;;;;;;7389935;19;20146;-80
2022/10/14 00:59:26;;;;;;;8.40;3.40;;;15.70;99.90;;;;;;7388937;19;20142;-79
2022/10/14 01:01:52;;;;;;;4.82;3.83;;;15.70;99.90;;;;;;7391325;19;20493;-80
2022/10/14 01:04:17;;;;;;;4.93;3.58;;;15.70;99.90;;;;;;7391241;19;20154;-80
2022/10/14 01:06:56;;;;;;;3.47;2.85;;;15.70;99.90;;;;;;7391768;19;20634;-79
2022/10/14 01:09:34;;;;;;;5.63;3.08;;;15.70;99.90;;;;;;7390529;19;20501;-80
2022/10/14 01:12:15;;;;;;;3.63;3.05;;;15.60;99.90;;;;;;7389738;19;20271;-79
2022/10/14 01:15:25;;;;;;;5.18;2.90;;;15.60;99.90;;;;;;7385954;19;20137;-80
2022/10/14 01:17:54;;;;;;;7.68;4.05;;;15.60;99.90;;;;;;7390498;19;20153;-79
2022/10/14 01:21:02;;;;;;;5.43;3.70;;;15.80;99.90;;;;;;7390294;19;20146;-79
2022/10/14 01:24:11;;;;;;;5.05;3.28;;;15.80;99.90;;;;;;7392808;19;20138;-79
2022/10/14 01:26:49;;;;;;;6.55;3.92;;;15.90;99.90;;;;;;7392084;19;20138;-80
2022/10/14 01:29:46;;;;;;;6.30;3.90;;;15.80;99.90;;;;;;7387212;19;20608;-79
2022/10/14 01:32:41;;;;;;;5.22;3.25;;;15.80;99.90;;;;;;7388726;19;20489;-80
2022/10/14 01:35:25;;;;;;;6.07;3.63;;;15.80;99.90;;;;;;7392036;19;20450;-79
2022/10/14 01:38:02;;;;;;;5.35;3.60;;;15.90;99.90;;;;;;7390364;19;20604;-79
2022/10/14 01:41:03;;;;;;;6.90;3.58;;;15.80;99.90;;;;;;7388679;19;20580;-79
2022/10/14 01:43:31;;;;;;;5.60;3.30;;;15.80;99.90;;;;;;7386648;19;20138;-79
2022/10/14 01:46:03;;;;;;;6.28;3.60;;;15.90;99.90;;;;;;7386865;19;20304;-80
2022/10/14 01:48:35;;;;;;;5.45;3.45;;;15.90;99.90;;;;;;7391079;19;20600;-80
2022/10/14 01:51:09;;;;;;;6.03;3.70;;;15.80;99.90;;;;;;7390880;19;20141;-78
2022/10/14 01:53:40;;;;;;;4.72;3.22;;;15.80;99.90;;;;;;7390099;19;20600;-80
2022/10/14 01:56:08;;;;;;;5.43;3.45;;;15.90;99.90;;;;;;7392279;19;20134;-80
2022/10/14 01:58:36;;;;;;;5.07;3.10;;;15.90;99.90;;;;;;7391522;19;20159;-80
2022/10/14 02:01:04;;;;;;;3.60;3.15;;;15.80;99.90;;;;;;7392772;19;20511;-80
2022/10/14 02:03:41;;;;;;;6.60;3.30;;;15.80;99.90;;;;;;7395398;19;20146;-79
2022/10/14 02:06:15;;;;;;;8.02;3.38;;;15.90;99.90;;;;;;7393837;19;20134;-80
2022/10/14 02:09:10;;;;;;;5.13;3.30;;;15.90;99.90;;;;;;7390506;19;20142;-80
2022/10/14 02:11:44;;;;;;;4.32;3.67;;;15.80;99.90;;;;;;7396111;19;20134;-80
2022/10/14 02:14:24;;;;;;;5.28;3.05;;;15.60;99.90;;;;;;7390745;19;20176;-79
2022/10/14 02:17:13;;;;;;;4.70;3.47;;;15.60;99.90;;;;;;7390105;19;20495;-80
2022/10/14 02:19:58;;;;;;;4.78;3.30;;;15.70;99.90;;;;;;7389576;19;20190;-79
2022/10/14 02:22:25;;;;;;;6.88;3.63;;;15.70;99.90;;;;;;7386965;19;20142;-79
2022/10/14 02:24:54;;;;;;;4.65;3.30;;;15.60;99.90;;;;;;7389563;19;20127;-80
2022/10/14 02:27:24;;;;;;;6.93;3.67;;;15.80;99.90;;;;;;7388866;19;20154;-79
2022/10/14 02:29:51;;;;;;;5.50;3.30;;;15.90;99.90;;;;;;7384738;19;20196;-79
2022/10/14 02:32:19;;;;;;;7.05;3.63;;;15.70;99.90;;;;;;7386092;19;20138;-79
2022/10/14 02:34:49;;;;;;;7.93;3.60;;;15.70;99.90;;;;;;7386700;19;20171;-80
2022/10/14 02:37:16;;;;;;;7.47;3.40;;;15.70;99.90;;;;;;7388616;19;20182;-79
2022/10/14 02:39:55;;;;;;;4.68;3.53;;;15.70;99.90;;;;;;7381325;19;20130;-79
2022/10/14 02:42:22;;;;;;;6.03;3.65;;;15.60;99.90;;;;;;7389223;19;20135;-79
2022/10/14 02:44:57;;;;;;;7.05;4.10;;;15.70;99.90;;;;;;7387967;19;20137;-79
2022/10/14 02:47:24;;;;;;;5.80;4.03;;;15.50;99.90;;;;;;7387421;19;20209;-80
2022/10/14 02:49:50;;;;;;;6.07;4.00;;;15.60;99.90;;;;;;7384946;19;20161;-78
2022/10/14 02:52:16;;;;;;;5.70;3.95;;;15.60;99.90;;;;;;7386188;19;20134;-77
2022/10/14 02:54:42;;;;;;;5.55;3.88;;;15.60;99.90;;;;;;7389258;19;20174;-77
2022/10/14 02:57:07;;;;;;;7.43;3.70;;;15.50;99.90;;;;;;7389434;19;20154;-77
2022/10/14 02:59:33;;;;;;;10.52;3.70;;;15.30;99.90;;;;;;7386761;19;20534;-76
2022/10/14 03:01:59;;;;;;;5.45;3.83;;;15.50;99.90;;;;;;7387716;19;20161;-77
2022/10/14 03:04:25;;;;;;;5.30;3.40;;;15.50;99.90;;;;;;7383947;19;20158;-77
2022/10/14 03:06:51;;;;;;;6.28;4.10;;;15.50;99.90;;;;;;7384327;19;20153;-76
2022/10/14 03:09:17;;;;;;;6.72;3.60;;;15.40;99.90;;;;;;7386399;19;20149;-77
2022/10/14 03:11:43;;;;;;;5.63;3.58;;;15.20;99.90;;;;;;7386510;19;20135;-77
2022/10/14 03:14:08;;;;;;;4.47;3.33;;;15.00;99.90;;;;;;7388738;19;20154;-75
2022/10/14 03:16:37;;;;;;;5.32;3.95;;;15.20;99.90;;;;;;7386859;19;20135;-75
2022/10/14 03:19:03;;;;;;;5.32;3.90;;;15.10;99.90;;;;;;7386858;19;20173;-76
2022/10/14 03:21:28;;;;;;;5.70;3.50;;;15.40;99.90;;;;;;7387944;19;20143;-77
2022/10/14 03:23:54;;;;;;;6.00;3.90;;;15.50;99.90;;;;;;7387663;19;20147;-75
2022/10/14 03:26:20;;;;;;;5.55;4.25;;;15.40;99.90;;;;;;7387626;19;20130;-75
2022/10/14 03:28:46;;;;;;;6.63;4.45;;;15.40;99.90;;;;;;7385933;19;20639;-76
2022/10/14 03:31:12;;;;;;;6.28;4.95;;;15.40;99.90;;;;;;7386534;19;20131;-76
2022/10/14 03:33:37;;;;;;;8.57;4.72;;;15.40;99.90;;;;;;7387611;19;20170;-76
2022/10/14 03:36:05;;;;;;;7.40;4.40;;;15.40;99.90;;;;;;7385385;19;20203;-77
2022/10/14 03:38:31;;;;;;;5.60;4.00;;;15.40;99.90;;;;;;7385053;19;20626;-77
2022/10/14 03:40:56;;;;;;;5.47;4.25;;;15.40;99.90;;;;;;7385220;19;20198;-76
2022/10/14 03:43:22;;;;;;;5.80;4.20;;;15.30;99.90;;;;;;7385630;19;20625;-75
2022/10/14 03:45:48;;;;;;;5.30;4.43;;;15.40;99.90;;;;;;7385143;19;20592;-75
2022/10/14 03:48:14;;;;;;;7.65;5.15;;;15.50;99.90;;;;;;7381581;19;20475;-76
2022/10/14 03:50:39;;;;;;;5.25;4.70;;;15.50;99.90;;;;;;7384168;19;20141;-75
2022/10/14 03:53:05;;;;;;;5.85;4.50;;;15.50;99.90;;;;;;7391771;19;20150;-77
2022/10/14 03:55:31;;;;;;;5.55;4.30;;;15.40;99.90;;;;;;7394495;19;20134;-77
2022/10/14 03:57:57;;;;;;;5.03;4.07;;;15.40;99.90;;;;;;7394008;19;20180;-76
2022/10/14 04:00:22;;;;;;;7.22;4.70;;;15.40;99.90;;;;;;7391972;19;20130;-76
2022/10/14 04:02:48;;;;;;;6.97;5.20;;;15.50;99.90;;;;;;7390702;19;20171;-76
2022/10/14 04:05:14;;;;;;;7.13;4.95;;;15.30;99.90;;;;;;7393601;19;20142;-76
2022/10/14 04:07:40;;;;;;;6.15;4.63;;;15.20;99.90;;;;;;7389532;19;20159;-76
2022/10/14 04:10:08;;;;;;;6.32;4.15;;;15.40;99.90;;;;;;7393060;19;20693;-76
2022/10/14 04:12:34;;;;;;;8.25;4.53;;;15.40;99.90;;;;;;7391846;19;20158;-75
2022/10/14 04:15:00;;;;;;;6.50;4.93;;;15.40;99.90;;;;;;7392313;19;20158;-76
2022/10/14 04:17:26;;;;;;;8.80;5.03;;;15.40;99.90;;;;;;7393872;19;20142;-77
2022/10/14 04:19:52;;;;;;;7.38;5.05;;;15.40;99.90;;;;;;7392095;19;20155;-77
2022/10/14 04:22:18;;;;;;;9.20;5.25;;;15.40;99.90;;;;;;7393436;19;20644;-77
2022/10/14 04:24:44;;;;;;;10.30;5.47;;;15.60;99.90;;;;;;7391821;19;20158;-77
2022/10/14 04:27:10;;;;;;;8.43;5.35;;;15.50;99.90;;;;;;7392652;19;20252;-79
2022/10/14 04:29:35;;;;;;;8.20;5.05;;;15.40;99.90;;;;;;7390609;19;20135;-77
2022/10/14 04:32:01;;;;;;;5.75;4.63;;;15.30;99.90;;;;;;7395314;19;20135;-77
2022/10/14 04:34:27;;;;;;;9.23;5.55;;;15.30;99.90;;;;;;7390701;19;20143;-76
2022/10/14 04:36:53;;;;;;;9.80;5.50;;;15.30;99.90;;;;;;7391198;19;20476;-76
2022/10/14 04:39:19;;;;;;;8.18;5.03;;;15.40;99.90;;;;;;7390933;19;20141;-76
2022/10/14 04:41:44;;;;;;;6.03;4.55;;;15.30;99.90;;;;;;7390855;19;20162;-76
2022/10/14 04:44:10;;;;;;;6.57;5.07;;;15.30;99.90;;;;;;7392020;19;20146;-77
2022/10/14 04:46:36;;;;;;;7.75;5.00;;;15.40;99.90;;;;;;7392714;19;20135;-76
2022/10/14 04:49:02;;;;;;;8.68;5.68;;;15.40;99.90;;;;;;7390951;19;20146;-77
2022/10/14 04:51:27;;;;;;;6.13;4.68;;;15.70;99.90;;;;;;7393258;19;20143;-77
2022/10/14 04:53:56;;;;;;;6.45;5.53;;;15.40;99.90;;;;;;7392337;19;20146;-76
2022/10/14 04:56:22;;;;;;;8.30;5.72;;;15.40;99.90;;;;;;7391823;19;20151;-76
2022/10/14 04:58:48;;;;;;;10.18;5.90;;;15.40;99.90;;;;;;7390226;19;20159;-77
2022/10/14 05:01:13;;;;;;;8.52;5.40;;;15.40;99.90;;;;;;7391868;19;20138;-79
2022/10/14 05:03:39;;;;;;;7.35;5.18;;;15.40;99.90;;;;;;7385565;19;20151;-77
2022/10/14 05:06:05;;;;;;;6.03;4.45;;;15.40;99.90;;;;;;7389929;19;20174;-77
2022/10/14 05:08:31;;;;;;;8.25;5.60;;;15.20;99.90;;;;;;7388439;19;20584;-77
2022/10/14 05:10:57;;;;;;;8.52;5.53;;;15.30;99.90;;;;;;7387256;19;20173;-75
2022/10/14 05:13:22;;;;;;;7.32;4.93;;;15.30;99.90;;;;;;7390876;19;20188;-74
2022/10/14 05:15:48;;;;;;;6.85;5.30;;;15.40;99.90;;;;;;7387601;19;20153;-76
2022/10/14 05:18:15;;;;;;;7.70;4.95;;;15.30;99.90;;;;;;7385400;19;20135;-75
2022/10/14 05:20:41;;;;;;;6.32;5.18;;;15.30;99.90;;;;;;7385059;19;20155;-75
2022/10/14 05:23:07;;;;;;;8.05;4.75;;;15.30;99.90;;;;;;7388024;19;20143;-75
2022/10/14 05:25:32;;;;;;;8.30;5.00;;;15.40;99.90;;;;;;7387304;19;20550;-75
2022/10/14 05:27:58;;;;;;;11.52;8.27;;;15.40;99.90;;;;;;7389542;19;20340;-75
2022/10/14 05:30:25;;;;;;;9.23;5.85;;;15.30;99.90;;;;;;7395007;19;20141;-74
2022/10/14 05:32:50;;;;;;;9.70;5.07;;;15.00;99.90;;;;;;7390429;19;20131;-76
2022/10/14 05:35:16;;;;;;;10.20;6.75;;;15.00;99.90;;;;;;7389598;19;20157;-75
2022/10/14 05:37:42;;;;;;;6.25;4.85;;;15.00;99.90;;;;;;7389566;19;20540;-75
2022/10/14 05:40:08;;;;;;;6.05;4.70;;;14.80;99.90;;;;;;7389791;19;20453;-75
2022/10/14 05:42:34;;;;;;;6.22;4.40;;;14.70;99.90;;;;;;7387225;19;20171;-75
2022/10/14 05:45:00;;;;;;;5.85;4.70;;;14.70;99.90;;;;;;7390003;19;20175;-72
2022/10/14 05:47:26;;;;;;;6.47;4.45;;;14.50;99.90;;;;;;7386314;19;20147;-73
2022/10/14 05:49:51;;;;;;;5.57;4.32;;;14.50;99.90;;;;;;7382576;19;20246;-73
2022/10/14 05:52:17;;;;;;;6.32;4.32;;;14.70;99.90;;;;;;7385937;19;20141;-74
2022/10/14 05:54:43;;;;;;;7.75;5.20;;;14.90;99.90;;;;;;7383429;19;20246;-74
2022/10/14 05:57:09;;;;;;;8.88;4.97;;;15.10;99.90;;;;;;7389688;19;20217;-75
2022/10/14 05:59:35;;;;;;;6.50;5.07;;;15.30;99.90;;;;;;7387145;19;20160;-74
2022/10/14 06:02:01;;;;;;;7.20;4.20;;;15.00;99.90;;;;;;7387959;19;20154;-73
2022/10/14 06:04:27;;;;;;;6.32;4.55;;;15.00;99.90;;;;;;7388153;19;20151;-74
2022/10/14 06:06:53;;;;;;;6.32;4.80;;;15.00;99.90;;;;;;7388268;19;20154;-73
2022/10/14 06:09:19;;;;;;;6.30;4.93;;;15.00;99.90;;;;;;7386377;19;20151;-73
2022/10/14 06:11:44;;;;;;;8.32;5.35;;;15.10;99.90;;;;;;7387734;19;20150;-73
2022/10/14 06:14:10;;;;;;;6.93;5.50;;;15.30;99.90;;;;;;7389061;19;20142;-73
2022/10/14 06:16:36;;;;;;;9.70;4.97;;;15.30;99.90;;;;;;7384859;19;20138;-74
2022/10/14 06:19:02;;;;;;;7.90;5.20;;;15.20;99.90;;;;;;7386155;19;20157;-74
2022/10/14 06:21:28;;;;;;;7.50;5.07;;;15.30;99.90;;;;;;7391321;19;20135;-73
2022/10/14 06:23:53;;;;;;;8.05;5.35;;;15.30;99.90;;;;;;7390285;19;20134;-74
2022/10/14 06:26:19;;;;;;;5.70;4.40;;;15.40;99.90;;;;;;7387336;19;20615;-74
2022/10/14 06:28:45;;;;;;;7.90;4.78;;;15.40;99.90;;;;;;7387361;19;20143;-72
2022/10/14 06:31:11;;;;;;;5.45;4.40;;;15.30;99.90;;;;;;7387474;19;20664;-73
2022/10/14 06:33:37;;;;;;;7.28;5.00;;;15.20;99.90;;;;;;7388518;19;20150;-74
2022/10/14 06:36:04;;;;;;;10.77;5.55;;;15.30;99.90;;;;;;7389747;19;20146;-72
2022/10/14 06:38:30;;;;;;;11.52;7.82;;;15.40;99.90;;;;;;7385556;19;20142;-75
2022/10/14 06:40:56;;;;;;;14.68;7.45;;;15.50;99.90;;;;;;7387602;19;20615;-72
2022/10/14 06:43:22;;;;;;;8.05;6.07;;;15.50;99.90;;;;;;7385845;19;20135;-74
2022/10/14 06:45:48;;;;;;;9.35;5.80;;;15.70;99.90;;;;;;7386881;19;20245;-74
2022/10/14 06:48:14;;;;;;;8.52;5.95;;;15.50;99.90;;;;;;7387784;19;20131;-75
2022/10/14 06:50:40;;;;;;;9.85;5.95;;;15.70;99.90;;;;;;7385087;19;20154;-75
2022/10/14 06:53:06;;;;;;;8.60;5.78;;;15.70;99.90;;;;;;7385786;19;20138;-74
2022/10/14 06:55:32;;;;;;;8.45;5.57;;;15.70;99.90;;;;;;7386373;19;20489;-71
2022/10/14 06:57:58;;;;;;;8.65;5.35;;;15.90;99.90;;;;;;7391805;19;20138;-74
2022/10/14 07:00:24;;;;;;;10.07;5.90;;;15.70;99.90;;;;;;7386625;19;20155;-75
2022/10/14 07:02:52;;;;;;;8.15;5.97;;;15.80;99.90;;;;;;7395248;19;20146;-74
2022/10/14 07:05:19;;;;;;;8.48;6.03;;;15.80;99.90;;;;;;7389099;19;20138;-74
2022/10/14 07:07:46;;;;;;;8.35;5.40;;;15.60;99.90;;;;;;7387651;19;20162;-75
2022/10/14 07:10:14;;;;;;;10.05;6.13;;;15.40;99.90;;;;;;7388447;19;20134;-75
2022/10/14 07:12:43;;;;;;;7.45;5.30;;;15.50;99.90;;;;;;7388613;19;20153;-74
2022/10/14 07:15:14;;;;;;;11.32;6.50;;;15.50;99.90;;;;;;7390316;19;20150;-74
2022/10/14 07:17:40;;;;;;;9.63;4.55;;;15.50;99.90;;;;;;7391396;19;20158;-77
2022/10/14 07:20:06;;;;;;;8.68;5.03;;;15.70;99.90;;;;;;7383912;19;20667;-74
2022/10/14 07:22:35;;;;;;;6.43;4.60;;;15.70;99.90;;;;;;7388768;19;20146;-75
2022/10/14 07:25:02;;;;;;;7.57;5.05;;;15.90;99.90;;;;;;7389417;19;20139;-74
2022/10/14 07:27:27;;;;;;;8.38;5.38;;;15.80;99.90;;;;;;7393309;19;20186;-73
2022/10/14 07:29:53;;;;;;;5.70;4.60;;;15.80;99.90;;;;;;7395119;19;20625;-72
2022/10/14 07:32:19;;;;;;;5.90;4.30;;;15.80;99.90;;;;;;7398104;19;20150;-75
2022/10/14 07:34:45;;;;;;;7.60;5.82;;;15.80;99.90;;;;;;7396802;19;20538;-74
2022/10/14 07:37:10;;;;;;;6.07;4.38;;;15.80;99.90;;;;;;7398810;19;20130;-75
2022/10/14 07:39:37;;;;;;;6.35;3.90;;;15.90;99.90;;;;;;7399847;19;20138;-73
2022/10/14 07:42:03;;;;;;;6.45;4.18;;;15.90;99.90;;;;;;7395753;19;20178;-74
2022/10/14 07:44:29;;;;;;;8.63;4.22;;;15.90;99.90;;;;;;7397760;19;20439;-74
2022/10/14 07:46:54;;;;;;;6.22;3.78;;;15.90;99.90;;;;;;7396756;19;20134;-74
2022/10/14 07:49:21;;;;;;;5.35;3.95;;;15.80;99.90;;;;;;7393512;19;20131;-73
2022/10/14 07:51:47;;;;;;;5.90;3.97;;;15.80;99.90;;;;;;7394682;19;20143;-74
2022/10/14 07:54:17;;;;;;;5.82;4.00;;;16.10;99.90;;;;;;7391490;19;20131;-73
2022/10/14 07:56:44;;;;;;;4.38;3.42;;;16.10;99.90;;;;;;7392537;19;20131;-75
2022/10/14 07:59:11;;;;;;;7.07;4.07;;;16.20;99.90;;;;;;7393416;19;20135;-73
2022/10/14 08:01:37;;;;;;;6.28;3.90;;;16.10;99.90;;;;;;7392942;19;20142;-73
2022/10/14 08:04:03;;;;;;;5.55;3.75;;;16.20;99.90;;;;;;7393979;19;20149;-74
2022/10/14 08:06:28;;;;;;;5.57;3.75;;;16.20;99.90;;;;;;7391688;19;20151;-73
2022/10/14 08:08:54;;;;;;;4.05;3.25;;;16.30;99.90;;;;;;7392885;19;20150;-73
2022/10/14 08:11:25;;;;;;;4.13;3.22;;;16.40;99.90;;;;;;7392461;19;20135;-74
2022/10/14 08:13:51;;;;;;;4.60;3.47;;;16.20;99.90;;;;;;7393587;19;20163;-73
2022/10/14 08:16:19;;;;;;;5.05;3.70;;;16.20;99.90;;;;;;7392974;19;20442;-73
2022/10/14 08:18:45;;;;;;;4.95;3.00;;;16.20;99.90;;;;;;7393786;19;20138;-74
2022/10/14 08:21:12;;;;;;;7.03;3.88;;;16.20;99.90;;;;;;7393943;19;20126;-74
2022/10/14 08:23:39;;;;;;;5.43;3.83;;;16.30;99.90;;;;;;7392349;19;20159;-73
2022/10/14 08:26:17;;;;;;;5.20;4.50;;;16.20;99.90;;;;;;7393250;19;20130;-73
2022/10/14 08:28:43;;;;;;;6.50;4.80;;;16.00;99.90;;;;;;7391731;19;20729;-73
2022/10/14 08:31:08;;;;;;;6.20;4.22;;;16.10;99.90;;;;;;7389054;19;20214;-74
2022/10/14 08:33:34;;;;;;;5.35;4.40;;;16.20;99.90;;;;;;7391969;19;20138;-73
2022/10/14 08:36:00;;;;;;;11.50;4.40;;;16.30;99.90;;;;;;7392265;19;20169;-74
2022/10/14 08:38:27;;;;;;;7.18;5.25;;;16.30;99.90;;;;;;7390025;19;20122;-73
2022/10/14 08:41:11;;;;;;;9.18;4.18;;;16.30;99.90;;;;;;7390191;19;20134;-74
2022/10/14 08:44:16;;;;;;;5.38;4.30;;;16.20;99.90;;;;;;7391805;19;20145;-75
2022/10/14 08:46:59;;;;;;;7.00;4.15;;;16.20;99.90;;;;;;7391910;19;20206;-73
2022/10/14 08:49:25;;;;;;;5.97;4.15;;;16.10;99.90;;;;;;7392243;19;20632;-75
2022/10/14 08:52:12;;;;;;;7.75;4.45;;;16.30;99.90;;;;;;7390853;19;20126;-74
2022/10/14 08:54:41;;;;;;;6.50;3.88;;;16.40;99.90;;;;;;7390177;19;20599;-74
2022/10/14 08:57:16;;;;;;;3.92;3.30;;;16.40;99.90;;;;;;7389707;19;20131;-74
2022/10/14 08:59:42;;;;;;;5.05;3.63;;;16.50;99.90;;;;;;7392576;19;20607;-75
2022/10/14 09:02:28;;;;;;;5.10;3.17;;;16.50;99.90;;;;;;7392157;19;20165;-74
2022/10/14 09:04:56;;;;;;;5.88;3.70;;;16.60;99.90;;;;;;7389289;19;20162;-73
2022/10/14 09:07:22;;;;;;;6.30;2.90;;;16.60;99.90;;;;;;7389236;19;20197;-74
2022/10/14 09:10:05;;;;;;;4.82;3.00;;;16.60;99.90;;;;;;7390599;19;20143;-72
2022/10/14 09:12:34;;;;;;;8.85;5.60;;;16.70;99.90;;;;;;7391730;19;20138;-73
2022/10/14 09:15:07;;;;;;;7.18;4.13;;;16.70;99.90;;;;;;7392215;19;20722;-74
2022/10/14 09:17:46;;;;;;;4.82;2.92;;;16.80;99.90;;;;;;7389567;19;20142;-73
2022/10/14 09:20:19;;;;;;;3.88;2.80;;;16.80;99.90;;;;;;7390090;19;20237;-73
2022/10/14 09:23:00;;;;;;;4.93;2.72;;;16.70;99.90;;;;;;7399047;19;20142;-73
2022/10/14 09:25:31;;;;;;;4.57;2.83;;;16.80;99.90;;;;;;7396151;19;20644;-73
2022/10/14 09:27:57;;;;;;;7.90;3.10;;;16.90;99.90;;;;;;7389156;19;20238;-74
2022/10/14 09:30:23;;;;;;;7.10;3.38;;;16.90;99.90;;;;;;7388819;19;20161;-75
2022/10/14 09:32:52;;;;;;;5.78;3.03;;;16.90;99.90;;;;;;7393495;19;20496;-74
2022/10/14 09:35:24;;;;;;;5.82;3.15;;;16.90;99.90;;;;;;7392036;19;20142;-73
2022/10/14 09:37:50;;;;;;;3.42;2.80;;;16.90;99.90;;;;;;7393016;19;20506;-74
2022/10/14 09:40:32;;;;;;;4.35;3.00;;;16.90;99.90;;;;;;7393172;19;20138;-75
2022/10/14 09:43:01;;;;;;;4.82;3.08;;;16.90;99.90;;;;;;7393053;19;20145;-73
2022/10/14 09:45:44;;;;;;;6.78;2.83;;;17.00;99.90;;;;;;7394770;19;20589;-73
2022/10/14 09:48:31;;;;;;;2.97;2.28;;;17.10;99.90;;;;;;7393216;19;20135;-73
2022/10/14 09:50:59;;;;;;;3.33;2.05;;;17.10;99.90;;;;;;7390884;19;20549;-73
2022/10/14 09:53:48;;;;;;;3.55;2.10;;;17.10;99.90;;;;;;7389419;19;20147;-74
2022/10/14 09:56:14;;;;;;;3.78;2.60;;;17.20;99.90;;;;;;7388632;19;20174;-74
2022/10/14 09:58:49;;;;;;;4.10;2.63;;;17.20;99.90;;;;;;7390977;19;20142;-75
2022/10/14 10:01:21;;;;;;;7.75;4.07;;;17.20;99.90;;;;;;7392039;19;20146;-74
2022/10/14 10:03:48;;;;;;;3.25;2.83;;;17.30;99.90;;;;;;7387201;19;20182;-74
2022/10/14 10:06:19;;;;;;;5.43;3.53;;;17.40;99.90;;;;;;7388824;19;20139;-74
2022/10/14 10:08:54;;;;;;;7.50;3.95;;;17.50;99.90;;;;;;7392631;19;20158;-73
2022/10/14 10:11:37;;;;;;;7.35;4.15;;;17.60;99.90;;;;;;7397293;19;20154;-75
2022/10/14 10:14:22;;;;;;;4.57;3.28;;;17.60;99.90;;;;;;7390554;19;20150;-70
2022/10/14 10:17:11;;;;;;;3.65;2.78;;;17.70;99.90;;;;;;7390335;19;20134;-74
2022/10/14 10:19:46;;;;;;;3.28;2.25;;;17.80;99.90;;;;;;7386456;19;20163;-74
2022/10/14 10:22:16;;;;;;;4.63;2.40;;;17.80;99.90;;;;;;7387136;19;20150;-75
2022/10/14 10:24:43;;;;;;;4.45;2.38;;;17.80;99.90;;;;;;7388985;19;20163;-74
2022/10/14 10:27:34;;;;;;;2.85;2.08;;;17.80;99.90;;;;;;7386825;19;20149;-73
2022/10/14 10:30:32;;;;;;;4.28;2.55;;;18.00;99.90;;;;;;7387240;19;20144;-75
2022/10/14 10:33:11;;;;;;;4.72;2.58;;;17.90;99.90;;;;;;7389162;19;20724;-74
2022/10/14 10:36:16;;;;;;;7.65;3.08;;;17.80;99.90;;;;;;7390265;19;20133;-74
2022/10/14 10:39:04;;;;;;;5.13;3.08;;;17.90;99.90;;;;;;7388250;19;20161;-74
2022/10/14 10:41:35;;;;;;;4.18;3.22;;;17.90;99.90;;;;;;7389090;19;20650;-74
2022/10/14 10:44:10;;;;;;;6.95;3.58;;;18.00;99.90;;;;;;7392669;19;20514;-74
2022/10/14 10:46:54;;;;;;;8.20;2.63;;;17.90;99.90;;;;;;7393967;19;20162;-73
2022/10/14 10:49:43;;;;;;;5.07;2.50;;;17.90;99.90;;;;;;7386940;19;20142;-74
2022/10/14 10:52:29;;;;;;;8.38;5.90;;;17.90;99.90;;;;;;7386327;19;20513;-74
2022/10/14 10:55:17;;;;;;;3.08;2.40;;;18.00;99.90;;;;;;7388538;19;20143;-74
2022/10/14 10:58:00;;;;;;;3.97;2.30;;;17.90;99.90;;;;;;7386961;19;20134;-73
2022/10/14 11:00:30;;;;;;;3.53;2.50;;;18.00;99.90;;;;;;7385332;19;20162;-75
2022/10/14 11:03:28;;;;;;;4.95;2.42;;;17.90;99.90;;;;;;7390491;19;20219;-74
2022/10/14 11:12:01;;;;;;;3.03;2.08;;;17.90;99.90;;;;;;7393523;19;20148;-73
2022/10/14 11:12:27;;;;;;;5.05;3.30;;;18.00;99.90;;;;;;7394248;19;20135;-73
2022/10/14 11:15:19;;;;;;;3.60;2.28;;;18.00;99.90;;;;;;7393317;19;20154;-74
2022/10/14 11:17:56;;;;;;;3.58;2.47;;;17.90;99.90;;;;;;7394240;19;20155;-75
2022/10/14 11:20:45;;;;;;;3.22;2.00;;;17.90;99.90;;;;;;7395539;19;20146;-74
2022/10/14 11:23:21;;;;;;;2.47;1.98;;;17.80;99.90;;;;;;7395130;19;20230;-74
2022/10/14 11:25:54;;;;;;;2.58;1.95;;;17.80;99.90;;;;;;7394889;19;20138;-73
2022/10/14 11:28:38;;;;;;;5.70;2.47;;;17.70;99.90;;;;;;7399916;19;20143;-73
2022/10/14 11:31:08;;;;;;;3.88;2.33;;;17.70;99.90;;;;;;7390704;19;20138;-73
2022/10/14 11:33:50;;;;;;;4.13;2.70;;;17.70;99.90;;;;;;7392884;19;20600;-74
2022/10/14 11:36:38;;;;;;;6.68;4.07;;;17.60;99.90;;;;;;7391602;19;20176;-73
2022/10/14 11:39:35;;;;;;;3.78;2.80;;;17.70;99.90;;;;;;7397026;19;20647;-74
2022/10/14 11:42:19;;;;;;;5.25;3.25;;;17.70;99.90;;;;;;7394747;19;20485;-74
2022/10/14 11:44:46;;;;;;;4.85;3.10;;;17.70;99.90;;;;;;7393570;19;20142;-74
2022/10/14 11:47:26;;;;;;;5.78;2.35;;;17.70;99.90;;;;;;7391040;19;20596;-74
2022/10/14 11:50:03;;;;;;;2.75;2.13;;;17.80;99.90;;;;;;7392158;19;20134;-73
2022/10/14 11:52:36;;;;;;;5.18;2.80;;;17.80;99.90;;;;;;7391349;19;20205;-74
2022/10/14 11:55:07;;;;;;;3.92;2.05;;;17.80;99.90;;;;;;7390741;19;20147;-74
2022/10/14 11:57:40;;;;;;;7.78;2.75;;;17.90;99.90;;;;;;7391791;19;20160;-74
2022/10/14 12:00:44;;;;;;;7.43;2.97;;;18.00;99.90;;;;;;7389927;19;20138;-73
2022/10/14 12:03:19;;;;;;;6.53;2.70;;;18.10;99.90;;;;;;7391732;19;20173;-75
2022/10/14 12:06:21;;;;;;;8.40;3.10;;;18.10;99.90;;;;;;7389150;19;20150;-75
2022/10/14 12:08:47;;;;;;;3.13;1.90;;;18.30;99.90;;;;;;7392947;19;20134;-72
2022/10/14 12:11:39;;;;;;;3.78;2.22;;;18.30;99.90;;;;;;7389496;19;20127;-73
2022/10/14 12:14:16;;;;;;;2.53;1.77;;;18.30;99.90;;;;;;7392610;19;20257;-74
2022/10/14 12:16:44;;;;;;;4.50;1.83;;;18.20;99.90;;;;;;7392853;19;20138;-74
2022/10/14 12:19:13;;;;;;;2.92;2.30;;;18.20;99.90;;;;;;7390260;19;20155;-75
2022/10/14 12:22:01;;;;;;;3.33;2.00;;;18.30;99.90;;;;;;7392530;19;20217;-74
2022/10/14 12:24:38;;;;;;;5.78;2.30;;;18.20;99.90;;;;;;7392499;19;20703;-73
2022/10/14 12:27:08;;;;;;;3.75;1.60;;;18.30;99.90;;;;;;7394336;19;20130;-73
2022/10/14 12:29:43;;;;;;;2.38;1.45;;;18.30;99.90;;;;;;7388994;19;20596;-74
2022/10/14 12:32:29;;;;;;;3.03;2.00;;;18.20;99.90;;;;;;7393696;19;20493;-74
2022/10/14 12:35:02;;;;;;;2.90;1.70;;;18.40;99.90;;;;;;7392322;19;20198;-74
2022/10/14 12:37:33;;;;;;;2.78;1.80;;;18.40;99.90;;;;;;7389759;19;20135;-74
2022/10/14 12:40:05;;;;;;;2.20;1.50;;;18.40;99.90;;;;;;7390121;19;20158;-74
2022/10/14 12:42:34;;;;;;;1.88;1.52;;;18.50;99.90;;;;;;7391250;19;20135;-73
2022/10/14 12:45:25;;;;;;;3.08;1.42;;;18.50;99.90;;;;;;7392720;19;20135;-74
2022/10/14 12:48:18;;;;;;;1.70;1.60;;;18.50;99.90;;;;;;7389548;19;20505;-73
2022/10/14 12:50:46;;;;;;;2.20;1.40;;;18.50;99.90;;;;;;7383861;19;20158;-75
2022/10/14 12:53:30;;;;;;;2.13;1.27;;;18.50;99.90;;;;;;7390405;19;20160;-74
2022/10/14 12:55:58;;;;;;;4.28;1.33;;;18.60;99.90;;;;;;7390654;19;20208;-75
2022/10/14 12:58:35;;;;;;;2.33;1.70;;;18.60;99.90;;;;;;7391981;19;20182;-74
2022/10/14 13:01:05;;;;;;;1.95;1.40;;;18.60;99.90;;;;;;7391225;19;20153;-74
2022/10/14 13:03:42;;;;;;;2.72;1.45;;;18.60;99.90;;;;;;7390661;19;20181;-73
2022/10/14 13:06:27;;;;;;;3.10;1.40;;;18.60;99.90;;;;;;7391757;19;20995;-73
2022/10/14 13:09:17;;;;;;;3.08;1.40;;;18.60;99.90;;;;;;7382461;19;20145;-74
2022/10/14 13:11:45;;;;;;;2.10;1.50;;;18.60;99.90;;;;;;7388580;19;20162;-76